Terminal Aerodrome Forecast
Issued by NWS Twin Cities, MN

Home | Current Version | Previous Version | Text Only | Print | Product List | Glossary On
Versions: 1 2 3 4 5 6 7 8 9 10 11 12 13 14 15 16 17 18 19 20 21 22 23 24 25 26 27 28
047
FTUS43 KMPX 211424 AAA
TAFMSP
TAF AMD
KMSP 211424Z 2114/2218 07006KT 4SM -SHRA BR OVC005
     FM211800 10003KT 4SM -DZ BR OVC004
     FM220300 VRB02KT 3/4SM BR VV003
     FM221500 33006KT 4SM BR OVC004=

USA.gov is the U.S. government's official web portal to all federal, state and local government web resources and services.